Time;durP1;ratioP1;P1;durP2;ratioP2;P2;SDS_P1;SDS_P2;PMS_P1;PMS_P2;Temp;Humidity;BMP_temperature;BMP_pressure;BME280_temperature;BME280_humidity;BME280_pressure;Samples;Min_cycle;Max_cycle;Signal;HPM_P1;HPM_P2
2021/11/03 00:01:50;;;;;;;14.60;11.20;;;6.40;95.00;;;;;;2605600;54;20262;-73
2021/11/03 00:04:16;;;;;;;16.13;12.03;;;6.40;94.70;;;;;;2610243;47;20718;-72
2021/11/03 00:06:43;;;;;;;18.20;11.80;;;6.30;94.70;;;;;;2609992;54;20379;-72
2021/11/03 00:09:10;;;;;;;16.90;13.80;;;6.40;94.70;;;;;;2611831;39;20812;-73
2021/11/03 00:11:37;;;;;;;19.13;13.73;;;6.30;95.00;;;;;;2611366;39;20957;-72
2021/11/03 00:14:04;;;;;;;21.80;14.20;;;6.40;94.70;;;;;;2608582;54;20444;-73
2021/11/03 00:16:30;;;;;;;18.10;13.23;;;6.40;94.10;;;;;;2609570;54;20399;-72
2021/11/03 00:18:56;;;;;;;21.30;13.90;;;6.50;94.10;;;;;;2608954;46;20514;-73
2021/11/03 00:21:22;;;;;;;22.43;13.03;;;6.40;93.90;;;;;;2608594;39;21683;-73
2021/11/03 00:23:47;;;;;;;18.97;13.53;;;6.30;94.80;;;;;;2605557;51;20431;-72
2021/11/03 00:26:13;;;;;;;18.50;12.80;;;6.40;94.40;;;;;;2609186;39;20563;-73
2021/11/03 00:28:39;;;;;;;19.40;13.50;;;6.30;94.60;;;;;;2609092;54;20411;-72
2021/11/03 00:31:05;;;;;;;21.30;12.60;;;6.30;94.50;;;;;;2609454;54;20402;-72
2021/11/03 00:33:33;;;;;;;22.63;14.43;;;6.30;94.50;;;;;;2610842;31;21054;-73
2021/11/03 00:36:00;;;;;;;22.27;14.47;;;6.30;95.00;;;;;;2606337;54;20414;-74
2021/11/03 00:38:26;;;;;;;18.27;14.40;;;6.20;95.60;;;;;;2606528;39;21201;-72
2021/11/03 00:40:53;;;;;;;22.20;13.80;;;6.20;95.10;;;;;;2606637;54;20486;-73
2021/11/03 00:43:20;;;;;;;25.77;14.73;;;6.40;95.00;;;;;;2607568;54;20707;-73
2021/11/03 00:45:47;;;;;;;26.53;14.50;;;6.40;94.90;;;;;;2608108;47;20440;-72
2021/11/03 00:48:13;;;;;;;21.20;14.90;;;6.40;94.80;;;;;;2607979;54;20448;-74
2021/11/03 00:50:39;;;;;;;25.57;15.20;;;6.20;95.80;;;;;;2608895;54;21026;-73
2021/11/03 00:53:08;;;;;;;24.37;14.80;;;6.20;96.40;;;;;;2607480;54;20416;-72
2021/11/03 00:55:34;;;;;;;21.10;15.13;;;6.20;96.40;;;;;;2606031;47;20456;-73
2021/11/03 00:58:00;;;;;;;19.00;13.80;;;6.30;97.00;;;;;;2608185;54;21002;-72
2021/11/03 01:00:26;;;;;;;23.97;14.97;;;6.30;97.30;;;;;;2608746;47;20463;-72
2021/11/03 01:02:52;;;;;;;20.10;15.97;;;6.30;97.40;;;;;;2609511;54;21188;-71
2021/11/03 01:05:22;;;;;;;23.00;14.57;;;6.30;97.40;;;;;;2608068;54;20431;-72
2021/11/03 01:07:49;;;;;;;27.20;16.57;;;6.30;97.30;;;;;;2608968;39;20828;-73
2021/11/03 01:10:17;;;;;;;22.57;15.53;;;6.40;96.80;;;;;;2608494;54;20454;-72
2021/11/03 01:12:44;;;;;;;21.87;14.90;;;6.60;96.10;;;;;;2608895;54;20445;-72
2021/11/03 01:15:14;;;;;;;23.47;14.30;;;6.70;95.90;;;;;;2608133;54;20527;-73
2021/11/03 01:17:40;;;;;;;22.00;14.90;;;6.70;95.30;;;;;;2608218;47;20443;-73
2021/11/03 01:20:09;;;;;;;20.90;14.37;;;6.50;95.00;;;;;;2609464;47;20436;-73
2021/11/03 01:22:36;;;;;;;16.00;13.03;;;6.30;95.30;;;;;;2611338;54;20408;-72
2021/11/03 01:25:04;;;;;;;17.73;12.97;;;6.30;95.30;;;;;;2609532;47;20420;-71
2021/11/03 01:27:30;;;;;;;21.67;12.77;;;6.30;94.80;;;;;;2607823;39;22635;-73
2021/11/03 01:29:56;;;;;;;15.83;11.00;;;6.40;94.30;;;;;;2608964;54;20537;-73
2021/11/03 01:32:22;;;;;;;18.70;13.40;;;6.20;94.50;;;;;;2607011;54;20404;-73
2021/11/03 01:34:49;;;;;;;15.67;11.87;;;6.10;94.70;;;;;;2609553;47;20416;-72
2021/11/03 01:37:15;;;;;;;15.83;12.93;;;6.10;94.70;;;;;;2609141;54;20458;-73
2021/11/03 01:39:41;;;;;;;20.53;13.63;;;6.00;94.20;;;;;;2610002;54;20155;-73
2021/11/03 01:42:07;;;;;;;16.30;11.67;;;6.10;94.30;;;;;;2609946;39;20955;-73
2021/11/03 01:44:34;;;;;;;18.30;13.63;;;6.00;94.00;;;;;;2608686;54;20456;-72
2021/11/03 01:47:39;;;;;;;23.20;14.90;;;6.00;94.20;;;;;;2609288;54;21260;-72
2021/11/03 01:50:21;;;;;;;18.60;12.90;;;6.00;94.70;;;;;;2611129;47;20421;-73
2021/11/03 01:52:53;;;;;;;24.43;13.80;;;6.00;95.00;;;;;;2611311;54;20423;-72
2021/11/03 01:55:20;;;;;;;17.90;12.77;;;5.90;94.50;;;;;;2610204;31;21104;-73
2021/11/03 01:57:55;;;;;;;21.43;13.97;;;5.90;94.40;;;;;;2609834;46;20596;-73
2021/11/03 02:00:33;;;;;;;28.03;13.80;;;5.70;94.70;;;;;;2608533;54;20422;-73
2021/11/03 02:03:06;;;;;;;20.43;13.83;;;5.60;95.40;;;;;;2608800;54;20953;-73
2021/11/03 02:05:41;;;;;;;26.43;15.97;;;5.60;95.80;;;;;;2611205;54;20495;-74
2021/11/03 02:08:08;;;;;;;18.90;14.50;;;5.80;95.80;;;;;;2608600;47;20431;-74
2021/11/03 02:10:35;;;;;;;22.80;16.87;;;5.80;96.40;;;;;;2607498;47;20567;-74
2021/11/03 02:13:01;;;;;;;24.67;15.47;;;5.90;96.10;;;;;;2609647;46;20406;-74
2021/11/03 02:15:27;;;;;;;19.50;13.83;;;6.00;95.80;;;;;;2612827;39;21765;-73
2021/11/03 02:17:55;;;;;;;23.10;15.10;;;6.10;95.40;;;;;;2608939;47;20527;-74
2021/11/03 02:20:23;;;;;;;25.17;16.63;;;6.00;95.10;;;;;;2609359;46;20439;-73
2021/11/03 02:23:12;;;;;;;19.83;14.33;;;5.90;94.90;;;;;;2610872;31;20889;-74
2021/11/03 02:25:45;;;;;;;22.17;14.17;;;6.20;94.40;;;;;;2606637;54;20419;-74
2021/11/03 02:28:11;;;;;;;18.50;13.90;;;6.00;94.40;;;;;;2608397;54;20423;-73
2021/11/03 02:30:37;;;;;;;16.40;14.00;;;6.00;94.60;;;;;;2606913;54;20367;-74
2021/11/03 02:33:09;;;;;;;17.57;13.13;;;5.90;94.30;;;;;;2608636;31;20928;-74
2021/11/03 02:35:37;;;;;;;15.60;12.87;;;6.00;94.50;;;;;;2609081;54;20967;-74
2021/11/03 02:38:05;;;;;;;15.20;12.83;;;5.90;94.50;;;;;;2609171;47;20412;-74
2021/11/03 02:40:39;;;;;;;24.00;14.27;;;5.90;95.10;;;;;;2608951;54;20470;-73
2021/11/03 02:43:38;;;;;;;21.93;12.53;;;5.70;95.00;;;;;;2612077;47;20465;-74
2021/11/03 02:46:04;;;;;;;19.53;14.57;;;5.90;95.60;;;;;;2609960;54;20404;-73
2021/11/03 02:48:33;;;;;;;19.03;15.40;;;6.00;95.10;;;;;;2611560;54;20398;-74
2021/11/03 02:50:59;;;;;;;21.97;16.00;;;6.00;95.30;;;;;;2609461;54;20406;-74
2021/11/03 02:53:28;;;;;;;19.43;14.03;;;6.00;94.90;;;;;;2609960;47;20424;-74
2021/11/03 02:55:54;;;;;;;18.90;15.00;;;6.00;95.30;;;;;;2609275;54;20424;-74
2021/11/03 02:58:21;;;;;;;16.80;13.20;;;6.10;95.10;;;;;;2609210;47;20407;-73
2021/11/03 03:00:48;;;;;;;19.10;13.87;;;5.90;94.80;;;;;;2610366;54;20423;-73
2021/11/03 03:03:14;;;;;;;20.77;13.03;;;6.00;95.00;;;;;;2609388;54;20500;-74
2021/11/03 03:05:45;;;;;;;23.03;14.03;;;5.90;94.60;;;;;;2607203;54;20487;-74
2021/11/03 03:08:11;;;;;;;21.73;14.57;;;5.70;94.80;;;;;;2610468;39;20750;-74
2021/11/03 03:10:37;;;;;;;15.07;12.90;;;5.80;94.60;;;;;;2609309;54;20518;-73
2021/11/03 03:13:03;;;;;;;20.03;14.30;;;5.90;94.40;;;;;;2607884;47;20161;-74
2021/11/03 03:15:29;;;;;;;18.80;15.20;;;5.70;94.90;;;;;;2609911;46;20967;-74
2021/11/03 03:17:55;;;;;;;18.90;14.00;;;5.70;94.80;;;;;;2611429;54;20402;-74
2021/11/03 03:20:20;;;;;;;20.80;13.40;;;5.80;94.20;;;;;;2607997;54;20404;-74
2021/11/03 03:22:46;;;;;;;19.13;13.97;;;5.90;93.80;;;;;;2609229;54;20479;-73
2021/11/03 03:25:12;;;;;;;20.80;14.77;;;5.80;94.00;;;;;;2609457;47;20181;-74
2021/11/03 03:27:38;;;;;;;21.03;13.77;;;5.60;94.50;;;;;;2609736;54;20155;-74
2021/11/03 03:30:09;;;;;;;21.50;14.53;;;5.70;94.30;;;;;;2610269;47;20171;-72
2021/11/03 03:32:36;;;;;;;18.60;14.40;;;5.60;94.20;;;;;;2612209;46;20480;-74
2021/11/03 03:35:04;;;;;;;20.10;13.70;;;5.50;94.40;;;;;;2609688;47;20428;-74
2021/11/03 03:37:30;;;;;;;18.97;13.77;;;5.50;94.60;;;;;;2610831;47;20411;-74
2021/11/03 03:39:56;;;;;;;23.60;15.17;;;5.50;94.70;;;;;;2608754;54;21001;-74
2021/11/03 03:42:22;;;;;;;24.10;14.30;;;5.60;94.60;;;;;;2610283;54;20943;-73
2021/11/03 03:44:50;;;;;;;23.97;13.50;;;5.70;94.30;;;;;;2608398;54;20410;-73
2021/11/03 03:47:16;;;;;;;21.20;15.10;;;5.50;94.60;;;;;;2612198;39;21253;-73
2021/11/03 03:49:43;;;;;;;17.57;13.37;;;5.40;95.50;;;;;;2612045;47;20534;-73
2021/11/03 03:52:14;;;;;;;24.30;16.87;;;5.40;95.70;;;;;;2612059;49;21001;-73
2021/11/03 03:54:40;;;;;;;20.80;14.70;;;5.30;96.00;;;;;;2609446;54;20434;-73
2021/11/03 03:57:06;;;;;;;24.87;14.90;;;5.30;96.30;;;;;;2608727;54;20416;-73
2021/11/03 03:59:33;;;;;;;18.80;14.60;;;5.50;96.30;;;;;;2609143;54;20421;-74
2021/11/03 04:01:59;;;;;;;17.50;13.37;;;5.70;95.70;;;;;;2609471;54;20403;-73
2021/11/03 04:04:26;;;;;;;19.83;13.40;;;5.90;95.30;;;;;;2609106;54;20415;-73
2021/11/03 04:06:51;;;;;;;18.17;13.40;;;6.00;94.80;;;;;;2609658;46;20523;-74
2021/11/03 04:09:18;;;;;;;15.77;12.27;;;6.00;94.40;;;;;;2610408;31;21071;-74
2021/11/03 04:11:44;;;;;;;19.40;14.70;;;5.90;94.10;;;;;;2607984;54;20451;-73
2021/11/03 04:14:16;;;;;;;17.50;14.23;;;6.00;94.40;;;;;;2609827;54;20439;-74
2021/11/03 04:16:42;;;;;;;22.20;13.83;;;6.00;94.30;;;;;;2610720;47;20423;-73
2021/11/03 04:19:12;;;;;;;20.47;13.67;;;5.90;94.70;;;;;;2610113;54;20410;-73
2021/11/03 04:21:38;;;;;;;23.30;14.43;;;5.90;95.10;;;;;;2611234;47;20423;-74
2021/11/03 04:24:04;;;;;;;19.80;14.20;;;5.80;95.70;;;;;;2608900;47;20402;-74
2021/11/03 04:26:34;;;;;;;23.10;15.40;;;5.90;96.30;;;;;;2608980;54;20449;-73
2021/11/03 04:29:05;;;;;;;21.50;14.13;;;6.00;96.30;;;;;;2611239;47;20496;-74
2021/11/03 04:31:32;;;;;;;28.67;15.70;;;6.00;96.50;;;;;;2609005;54;20430;-75
2021/11/03 04:33:58;;;;;;;20.33;15.03;;;6.10;96.40;;;;;;2610809;54;20434;-73
2021/11/03 04:36:28;;;;;;;22.47;14.17;;;6.20;96.30;;;;;;2606815;54;20458;-75
2021/11/03 04:38:57;;;;;;;20.60;13.97;;;6.60;95.70;;;;;;2606791;54;20411;-75
2021/11/03 04:41:25;;;;;;;22.13;14.10;;;6.70;94.80;;;;;;2608534;54;20435;-73
2021/11/03 04:43:53;;;;;;;26.90;15.23;;;6.90;95.00;;;;;;2611280;39;20971;-74
2021/11/03 04:46:21;;;;;;;20.17;14.93;;;6.80;94.80;;;;;;2609877;51;20527;-73
2021/11/03 04:48:47;;;;;;;22.90;15.93;;;6.70;95.40;;;;;;2610780;54;20427;-75
2021/11/03 04:51:16;;;;;;;19.07;14.03;;;6.90;94.70;;;;;;2610698;54;20496;-73
2021/11/03 04:53:43;;;;;;;22.47;14.00;;;6.50;94.60;;;;;;2610164;54;20427;-74
2021/11/03 04:56:10;;;;;;;20.20;14.37;;;6.50;95.00;;;;;;2610803;54;20500;-73
2021/11/03 04:58:41;;;;;;;21.30;15.57;;;6.50;95.00;;;;;;2607797;54;20166;-74
2021/11/03 05:01:07;;;;;;;22.87;14.10;;;6.50;95.80;;;;;;2610526;39;20824;-73
2021/11/03 05:03:33;;;;;;;22.00;14.87;;;6.50;95.60;;;;;;2611052;54;20423;-73
2021/11/03 05:06:01;;;;;;;21.23;12.87;;;6.60;95.90;;;;;;2609608;54;20550;-74
2021/11/03 05:08:28;;;;;;;22.47;13.93;;;6.80;96.00;;;;;;2611231;54;20442;-74
2021/11/03 05:10:54;;;;;;;16.50;12.30;;;6.50;95.20;;;;;;2609990;54;20566;-75
2021/11/03 05:13:21;;;;;;;19.43;13.70;;;6.50;96.00;;;;;;2609790;54;20453;-74
2021/11/03 05:15:47;;;;;;;19.70;13.03;;;6.70;96.20;;;;;;2610925;39;20571;-75
2021/11/03 05:18:14;;;;;;;16.03;12.10;;;6.80;95.70;;;;;;2609931;54;21000;-74
2021/11/03 05:20:41;;;;;;;20.50;13.10;;;6.80;95.30;;;;;;2610244;54;20522;-74
2021/11/03 05:23:07;;;;;;;20.00;13.70;;;6.80;95.40;;;;;;2608358;54;20224;-74
2021/11/03 05:25:33;;;;;;;18.67;13.43;;;6.90;95.20;;;;;;2610741;54;23146;-73
2021/11/03 05:27:59;;;;;;;24.03;13.57;;;6.80;95.30;;;;;;2609974;54;20154;-74
2021/11/03 05:30:27;;;;;;;16.80;13.03;;;7.00;94.60;;;;;;2610477;54;20422;-73
2021/11/03 05:32:54;;;;;;;16.63;12.77;;;7.10;94.10;;;;;;2612247;54;20407;-74
2021/11/03 05:35:20;;;;;;;17.30;12.07;;;6.80;94.10;;;;;;2608049;54;20466;-74
2021/11/03 05:37:46;;;;;;;16.60;12.90;;;6.70;94.50;;;;;;2609364;54;20408;-73
2021/11/03 05:40:17;;;;;;;16.70;13.40;;;6.60;95.00;;;;;;2610366;54;20424;-73
2021/11/03 05:42:43;;;;;;;18.77;13.40;;;6.90;94.50;;;;;;2610971;54;20416;-74
2021/11/03 05:45:09;;;;;;;17.67;13.50;;;6.90;94.60;;;;;;2611082;54;20522;-74
2021/11/03 05:47:35;;;;;;;20.20;13.20;;;6.70;94.40;;;;;;2610313;47;20416;-74
2021/11/03 05:50:01;;;;;;;16.60;13.30;;;6.80;94.50;;;;;;2610709;39;20887;-73
2021/11/03 05:52:27;;;;;;;18.90;12.70;;;6.70;94.90;;;;;;2610491;47;20517;-73
2021/11/03 05:54:54;;;;;;;15.50;11.77;;;6.70;95.00;;;;;;2612648;39;20530;-73
2021/11/03 05:57:30;;;;;;;16.30;12.27;;;6.90;94.50;;;;;;2609536;54;20464;-73
2021/11/03 05:59:57;;;;;;;17.53;11.83;;;6.60;94.70;;;;;;2609697;39;20824;-73
2021/11/03 06:02:23;;;;;;;19.47;13.37;;;6.40;95.80;;;;;;2610171;54;20420;-73
2021/11/03 06:04:49;;;;;;;25.40;14.90;;;6.70;95.60;;;;;;2609289;54;21071;-73
2021/11/03 06:07:16;;;;;;;16.53;12.77;;;6.70;94.80;;;;;;2611399;54;20423;-74
2021/11/03 06:09:43;;;;;;;17.80;13.20;;;6.80;94.60;;;;;;2610996;54;20265;-73
2021/11/03 06:12:10;;;;;;;19.20;14.03;;;6.60;95.40;;;;;;2610106;54;21002;-73
2021/11/03 06:14:36;;;;;;;16.30;13.37;;;6.60;95.20;;;;;;2609535;50;20419;-74
2021/11/03 06:17:02;;;;;;;20.47;15.03;;;6.60;95.00;;;;;;2608974;54;20407;-73
2021/11/03 06:19:28;;;;;;;22.37;14.67;;;6.70;95.00;;;;;;2611592;54;20435;-76
2021/11/03 06:21:54;;;;;;;19.67;14.03;;;7.00;94.90;;;;;;2609118;54;20414;-75
2021/11/03 06:24:22;;;;;;;20.50;15.30;;;7.20;93.50;;;;;;2607105;49;21431;-74
2021/11/03 06:26:48;;;;;;;23.10;15.70;;;7.20;93.90;;;;;;2609275;54;20403;-74
2021/11/03 06:29:14;;;;;;;24.10;16.20;;;6.70;94.70;;;;;;2610324;47;20427;-74
2021/11/03 06:31:40;;;;;;;20.80;14.90;;;6.90;95.00;;;;;;2606616;54;20233;-72
2021/11/03 06:34:07;;;;;;;19.23;13.73;;;7.00;94.80;;;;;;2606634;54;20238;-73
2021/11/03 06:36:36;;;;;;;21.40;16.10;;;6.90;94.80;;;;;;2611102;54;20389;-73
2021/11/03 06:39:07;;;;;;;22.23;15.87;;;7.10;94.40;;;;;;2611129;39;20838;-73
2021/11/03 06:41:36;;;;;;;25.83;17.10;;;7.00;94.70;;;;;;2610740;54;20538;-72
2021/11/03 06:44:02;;;;;;;28.23;16.33;;;7.00;94.70;;;;;;2610311;54;20438;-74
2021/11/03 06:46:28;;;;;;;25.53;16.93;;;7.20;94.00;;;;;;2609788;47;21190;-73
2021/11/03 06:48:55;;;;;;;32.63;19.87;;;7.30;94.00;;;;;;2609824;31;20977;-73
2021/11/03 06:51:21;;;;;;;31.73;21.00;;;7.00;94.60;;;;;;2605271;39;20944;-73
2021/11/03 06:53:47;;;;;;;27.17;20.77;;;7.10;94.90;;;;;;2607576;54;20427;-72
2021/11/03 06:56:13;;;;;;;30.70;23.20;;;7.00;94.60;;;;;;2605719;54;21649;-73
2021/11/03 06:58:38;;;;;;;27.50;22.30;;;6.70;95.50;;;;;;2606375;54;20147;-73
2021/11/03 07:01:05;;;;;;;32.60;25.23;;;6.70;96.00;;;;;;2606725;54;20190;-73
2021/11/03 07:03:32;;;;;;;33.40;24.20;;;7.00;96.20;;;;;;2607495;39;20590;-73
2021/11/03 07:05:58;;;;;;;29.33;22.73;;;6.90;96.20;;;;;;2607787;54;20472;-73
2021/11/03 07:08:25;;;;;;;31.50;21.93;;;7.30;95.70;;;;;;2607683;54;20530;-73
2021/11/03 07:10:54;;;;;;;30.13;22.63;;;7.60;94.80;;;;;;2609599;54;20186;-73
2021/11/03 07:13:22;;;;;;;32.77;22.10;;;7.70;94.50;;;;;;2608190;51;21900;-73
2021/11/03 07:15:48;;;;;;;28.50;20.80;;;7.80;94.10;;;;;;2607240;54;20452;-72
2021/11/03 07:18:14;;;;;;;27.80;21.27;;;7.70;94.40;;;;;;2608459;54;20404;-73
2021/11/03 07:20:42;;;;;;;26.90;18.60;;;7.60;94.50;;;;;;2608347;39;20447;-73
2021/11/03 07:23:10;;;;;;;26.97;19.33;;;7.50;94.40;;;;;;2608047;39;20857;-72
2021/11/03 07:25:36;;;;;;;26.10;17.37;;;7.70;94.70;;;;;;2606789;54;21408;-73
2021/11/03 07:28:03;;;;;;;36.80;21.20;;;7.80;94.30;;;;;;2609156;54;20392;-72
2021/11/03 07:30:32;;;;;;;25.63;18.00;;;7.80;94.40;;;;;;2608866;54;20423;-73
2021/11/03 07:32:58;;;;;;;25.17;17.23;;;7.90;94.00;;;;;;2610844;54;20410;-73
2021/11/03 07:35:24;;;;;;;22.83;15.90;;;8.00;94.10;;;;;;2609935;54;20416;-73
2021/11/03 07:37:52;;;;;;;19.77;15.70;;;7.90;94.10;;;;;;2608747;54;21506;-72
2021/11/03 07:40:22;;;;;;;29.30;16.70;;;8.00;94.00;;;;;;2609449;54;20412;-73
2021/11/03 07:42:49;;;;;;;22.57;16.63;;;8.00;93.70;;;;;;2610321;39;20858;-73
2021/11/03 07:45:15;;;;;;;25.67;17.03;;;8.10;93.90;;;;;;2607785;39;20799;-73
2021/11/03 07:47:41;;;;;;;21.23;16.17;;;7.90;93.10;;;;;;2608792;54;20420;-73
2021/11/03 07:50:14;;;;;;;24.63;16.50;;;7.90;93.90;;;;;;2610046;54;20139;-72
2021/11/03 07:52:40;;;;;;;24.03;16.60;;;8.10;94.20;;;;;;2608226;47;20423;-73
2021/11/03 07:55:06;;;;;;;28.57;18.07;;;8.00;94.40;;;;;;2610311;39;20831;-73
2021/11/03 07:57:33;;;;;;;26.10;16.07;;;8.10;94.60;;;;;;2611370;54;20170;-73
2021/11/03 07:59:59;;;;;;;21.43;15.80;;;8.10;94.60;;;;;;2612339;39;20750;-73
2021/11/03 08:02:24;;;;;;;21.40;15.53;;;8.30;94.00;;;;;;2612071;54;20411;-73
2021/11/03 08:04:50;;;;;;;23.97;15.90;;;8.30;94.30;;;;;;2607911;54;20379;-73
2021/11/03 08:07:16;;;;;;;22.40;14.93;;;8.30;93.70;;;;;;2611094;54;20143;-73
2021/11/03 08:09:46;;;;;;;27.13;17.70;;;8.30;93.70;;;;;;2610414;54;20138;-73
2021/11/03 08:12:12;;;;;;;23.37;17.10;;;8.50;93.80;;;;;;2609839;47;20189;-74
2021/11/03 08:14:39;;;;;;;25.33;17.07;;;8.20;94.60;;;;;;2610165;54;20455;-73
2021/11/03 08:17:09;;;;;;;33.73;16.60;;;8.30;94.60;;;;;;2627098;36;20507;-72
2021/11/03 08:19:41;;;;;;;25.27;16.70;;;7.90;93.80;;;;;;2609669;54;20428;-72
2021/11/03 08:22:08;;;;;;;25.13;16.37;;;7.70;95.10;;;;;;2609914;46;20431;-74
2021/11/03 08:24:34;;;;;;;22.60;16.73;;;7.60;95.30;;;;;;2609677;54;20382;-74
2021/11/03 08:27:00;;;;;;;21.20;16.13;;;7.60;95.30;;;;;;2610910;54;20402;-74
2021/11/03 08:29:27;;;;;;;25.83;17.13;;;7.70;95.50;;;;;;2612475;54;20419;-73
2021/11/03 08:31:56;;;;;;;20.23;15.20;;;8.00;95.80;;;;;;2607385;47;20307;-75
2021/11/03 08:34:25;;;;;;;27.00;15.37;;;7.80;95.20;;;;;;2610862;54;20427;-74
2021/11/03 08:36:54;;;;;;;24.13;16.43;;;7.90;95.10;;;;;;2611766;39;20810;-73
2021/11/03 08:39:23;;;;;;;21.63;15.63;;;7.90;95.20;;;;;;2613218;39;20894;-73
2021/11/03 08:41:49;;;;;;;23.43;15.20;;;8.00;94.70;;;;;;2611678;54;20430;-73
2021/11/03 08:44:16;;;;;;;26.73;17.53;;;8.40;94.30;;;;;;2610814;54;20391;-73
2021/11/03 08:46:42;;;;;;;26.43;16.43;;;8.80;94.20;;;;;;2611112;54;20251;-73
2021/11/03 08:49:07;;;;;;;27.70;17.17;;;9.10;92.80;;;;;;2610466;54;20422;-74
2021/11/03 08:51:35;;;;;;;19.97;16.07;;;9.00;93.20;;;;;;2610383;54;21278;-73
2021/11/03 08:54:04;;;;;;;26.23;16.80;;;9.00;93.70;;;;;;2610702;54;20937;-73
2021/11/03 08:56:30;;;;;;;26.63;16.27;;;8.90;92.40;;;;;;2610418;54;20380;-73
2021/11/03 08:58:56;;;;;;;24.53;16.77;;;9.00;93.60;;;;;;2611903;54;20910;-73
2021/11/03 09:01:22;;;;;;;22.50;16.50;;;8.70;93.40;;;;;;2612614;54;20542;-72
2021/11/03 09:03:50;;;;;;;22.07;17.30;;;8.80;94.10;;;;;;2613138;54;20255;-73
2021/11/03 09:06:16;;;;;;;23.67;15.87;;;9.10;92.80;;;;;;2611082;54;20561;-73
2021/11/03 09:08:49;;;;;;;26.97;17.23;;;8.80;92.80;;;;;;2612206;46;20414;-74
2021/11/03 09:11:15;;;;;;;23.70;17.40;;;9.00;94.00;;;;;;2614320;54;20444;-73
2021/11/03 09:13:43;;;;;;;23.70;15.80;;;9.20;93.00;;;;;;2614786;54;20406;-73
2021/11/03 09:16:10;;;;;;;21.50;15.63;;;9.40;93.20;;;;;;2614389;54;20411;-73
2021/11/03 09:18:36;;;;;;;22.57;15.53;;;9.40;92.50;;;;;;2615190;54;20380;-73
2021/11/03 09:21:04;;;;;;;24.27;15.00;;;9.30;92.20;;;;;;2614325;54;20503;-72
2021/11/03 09:23:30;;;;;;;21.93;15.70;;;9.20;92.60;;;;;;2613776;39;20827;-73
2021/11/03 09:25:57;;;;;;;22.27;18.00;;;9.40;91.50;;;;;;2613470;54;20455;-73
2021/11/03 09:28:26;;;;;;;25.80;17.63;;;9.50;92.10;;;;;;2612253;54;20412;-72
2021/11/03 09:30:55;;;;;;;22.93;16.10;;;9.40;92.90;;;;;;2610113;54;20436;-72
2021/11/03 09:33:24;;;;;;;20.60;16.07;;;9.20;92.10;;;;;;2611646;54;20411;-72
2021/11/03 09:35:52;;;;;;;21.27;16.80;;;9.50;92.60;;;;;;2611434;39;20511;-73
2021/11/03 09:38:21;;;;;;;20.80;15.43;;;9.60;92.30;;;;;;2610157;54;20412;-73
2021/11/03 09:40:58;;;;;;;23.47;16.37;;;9.70;92.20;;;;;;2611997;54;20409;-73
2021/11/03 09:43:36;;;;;;;20.17;16.27;;;9.80;92.00;;;;;;2611655;54;20412;-73
2021/11/03 09:46:34;;;;;;;24.87;15.90;;;10.10;91.50;;;;;;2606753;54;20444;-73
2021/11/03 09:49:10;;;;;;;22.17;15.80;;;10.00;91.30;;;;;;2609578;54;20414;-73
2021/11/03 09:51:42;;;;;;;26.67;17.13;;;10.10;90.80;;;;;;2612791;54;20519;-73
2021/11/03 09:54:19;;;;;;;21.67;15.97;;;10.10;91.20;;;;;;2610207;54;20452;-74
2021/11/03 09:56:58;;;;;;;23.60;16.90;;;10.00;90.60;;;;;;2607820;54;20391;-73
2021/11/03 09:59:36;;;;;;;22.77;15.67;;;10.00;90.90;;;;;;2612771;54;20958;-74
2021/11/03 10:02:38;;;;;;;23.90;16.90;;;10.00;91.20;;;;;;2611950;39;21101;-73
2021/11/03 10:05:45;;;;;;;23.67;15.83;;;10.00;90.80;;;;;;2610590;54;22074;-76
2021/11/03 10:08:14;;;;;;;29.00;18.00;;;9.50;91.80;;;;;;2609168;54;20419;-73
2021/11/03 10:10:49;;;;;;;27.80;17.90;;;9.30;91.70;;;;;;2608466;54;20599;-73
2021/11/03 10:13:24;;;;;;;21.73;16.90;;;9.70;92.50;;;;;;2607585;46;20543;-74
2021/11/03 10:16:15;;;;;;;23.60;18.03;;;10.10;90.90;;;;;;2608909;39;21010;-73
2021/11/03 10:19:08;;;;;;;25.07;18.40;;;10.20;90.60;;;;;;2610169;54;20451;-74
2021/11/03 10:21:54;;;;;;;23.70;18.23;;;10.70;89.80;;;;;;2610374;54;20505;-74
2021/11/03 10:24:30;;;;;;;24.60;17.83;;;10.30;90.90;;;;;;2610745;54;20426;-74
2021/11/03 10:27:09;;;;;;;32.13;18.57;;;10.40;90.60;;;;;;2607064;54;21031;-74
2021/11/03 10:29:42;;;;;;;28.27;19.37;;;10.60;90.70;;;;;;2606797;54;20408;-73
2021/11/03 10:32:08;;;;;;;31.10;18.03;;;10.60;90.00;;;;;;2627079;36;20599;-73
2021/11/03 10:34:34;;;;;;;32.20;16.70;;;10.30;90.10;;;;;;2608065;54;20952;-73
2021/11/03 10:37:12;;;;;;;21.90;15.63;;;9.80;90.80;;;;;;2606625;54;20376;-73
2021/11/03 10:39:56;;;;;;;21.03;15.77;;;9.80;91.50;;;;;;2607890;54;20270;-73
2021/11/03 10:42:31;;;;;;;20.53;16.03;;;9.50;91.40;;;;;;2607730;54;20558;-72
2021/11/03 10:45:11;;;;;;;25.73;17.83;;;9.60;91.90;;;;;;2608327;39;20881;-74
2021/11/03 10:47:37;;;;;;;32.97;17.60;;;10.20;90.80;;;;;;2608833;54;22472;-74
2021/11/03 10:50:27;;;;;;;21.07;15.90;;;10.10;90.40;;;;;;2609652;54;21055;-72
2021/11/03 10:53:17;;;;;;;25.93;17.03;;;10.30;88.60;;;;;;2610418;54;20434;-73
2021/11/03 10:55:57;;;;;;;23.20;14.90;;;10.20;90.20;;;;;;2609484;54;20399;-74
2021/11/03 10:58:31;;;;;;;24.20;16.97;;;10.00;90.60;;;;;;2612362;54;20452;-73
2021/11/03 11:00:59;;;;;;;19.30;15.10;;;9.80;91.60;;;;;;2611715;54;20434;-74
2021/11/03 11:03:56;;;;;;;23.20;17.30;;;9.90;91.00;;;;;;2611888;54;20438;-72
2021/11/03 11:06:30;;;;;;;26.17;16.27;;;9.70;91.30;;;;;;2609502;54;20415;-74
2021/11/03 11:09:10;;;;;;;23.93;16.50;;;9.80;91.70;;;;;;2609868;54;20411;-73
2021/11/03 11:11:40;;;;;;;24.43;16.20;;;10.10;90.60;;;;;;2610069;54;20507;-73
2021/11/03 11:14:18;;;;;;;21.97;15.47;;;10.40;90.00;;;;;;2609422;54;20407;-73
2021/11/03 11:16:56;;;;;;;25.73;16.43;;;10.40;88.80;;;;;;2609981;54;20435;-73
2021/11/03 11:19:28;;;;;;;28.03;16.90;;;10.30;90.00;;;;;;2609570;54;20420;-73
2021/11/03 11:22:04;;;;;;;21.23;16.27;;;10.30;90.30;;;;;;2609942;47;20435;-72
2021/11/03 11:24:48;;;;;;;23.37;16.27;;;10.40;89.20;;;;;;2609997;54;20399;-74
2021/11/03 11:27:35;;;;;;;24.93;16.77;;;10.40;89.70;;;;;;2609282;47;20446;-73
2021/11/03 11:30:18;;;;;;;20.77;15.73;;;10.20;89.80;;;;;;2610375;54;21288;-73
2021/11/03 11:33:01;;;;;;;20.90;16.13;;;10.00;90.00;;;;;;2610303;54;20408;-75
2021/11/03 11:35:40;;;;;;;22.73;14.83;;;10.30;90.30;;;;;;2609537;54;20396;-74
2021/11/03 11:38:30;;;;;;;23.70;15.40;;;10.30;89.50;;;;;;2608800;39;20919;-74
2021/11/03 11:41:29;;;;;;;19.93;14.43;;;10.40;90.00;;;;;;2607678;54;20426;-73
2021/11/03 11:44:30;;;;;;;25.27;15.97;;;10.10;89.60;;;;;;2607330;54;20419;-73
2021/11/03 11:47:01;;;;;;;19.93;15.33;;;10.20;90.30;;;;;;2609289;47;20414;-72
2021/11/03 11:49:33;;;;;;;23.70;15.20;;;10.10;90.20;;;;;;2609169;54;20423;-73
2021/11/03 11:52:20;;;;;;;16.90;13.60;;;10.10;89.30;;;;;;2609184;47;20434;-73
2021/11/03 11:55:10;;;;;;;24.77;14.20;;;10.00;90.00;;;;;;2608824;54;20423;-74
2021/11/03 11:57:40;;;;;;;17.07;13.00;;;9.90;90.40;;;;;;2608670;54;20419;-72
2021/11/03 12:00:09;;;;;;;24.57;14.53;;;10.00;90.00;;;;;;2611211;54;20402;-73
2021/11/03 12:03:00;;;;;;;20.83;14.13;;;10.00;89.80;;;;;;2609020;54;21596;-73
2021/11/03 12:05:45;;;;;;;20.40;13.53;;;10.30;88.50;;;;;;2610206;54;20556;-73
2021/11/03 12:08:11;;;;;;;22.53;15.87;;;10.40;88.60;;;;;;2611149;47;20419;-73
2021/11/03 12:11:01;;;;;;;20.13;15.13;;;10.40;88.00;;;;;;2610712;54;20447;-74
2021/11/03 12:13:31;;;;;;;23.80;15.93;;;10.30;87.90;;;;;;2610734;46;20424;-73
2021/11/03 12:16:07;;;;;;;21.60;16.20;;;10.20;89.80;;;;;;2611907;39;20847;-74
2021/11/03 12:18:33;;;;;;;25.00;14.93;;;10.10;89.70;;;;;;2609970;54;20417;-73
2021/11/03 12:21:02;;;;;;;22.33;15.07;;;10.00;90.40;;;;;;2611361;39;20782;-73
2021/11/03 12:23:49;;;;;;;20.93;15.70;;;10.20;90.00;;;;;;2610691;54;20150;-74
2021/11/03 12:26:27;;;;;;;20.97;15.90;;;10.10;90.20;;;;;;2612131;54;20419;-73
2021/11/03 12:29:16;;;;;;;30.53;17.00;;;10.00;90.40;;;;;;2609911;54;20394;-73
2021/11/03 12:31:58;;;;;;;25.50;16.60;;;10.10;90.40;;;;;;2608391;50;20455;-73
2021/11/03 12:34:34;;;;;;;23.97;16.13;;;10.00;90.60;;;;;;2609184;54;20402;-73
2021/11/03 12:37:00;;;;;;;26.07;16.83;;;9.90;91.40;;;;;;2609140;47;20419;-72
2021/11/03 12:39:29;;;;;;;23.70;17.10;;;9.90;91.80;;;;;;2610797;47;20426;-74
2021/11/03 12:42:17;;;;;;;20.90;16.00;;;9.60;92.10;;;;;;2611510;54;20146;-74
2021/11/03 12:44:54;;;;;;;23.37;16.97;;;9.50;92.40;;;;;;2610744;54;20505;-74
2021/11/03 12:47:22;;;;;;;22.00;16.63;;;9.60;92.70;;;;;;2607784;54;20459;-74
2021/11/03 12:50:07;;;;;;;22.10;15.00;;;9.80;92.40;;;;;;2608886;54;21035;-74
2021/11/03 12:52:41;;;;;;;22.43;16.10;;;9.80;91.40;;;;;;2610214;54;20431;-76